Accueil
METAR-TAF:

METAR-TAF

Aéroports :

Aéroport de Deauville-Normandie

Deauville, France

latitude: 49-21-55N, longitude: 000-09-16E, altitude: 146 m

Observation

Le bulletin a été fait il y a 25 minutes, à 02:00 UTC
Vent 4 kt de sud-ouest
Température 13°C
Humidité 100%
Pression 1024 hPa
Visibilité: 9000 m
Quelques nuages à une hauteur de 2000 ft

METAR: LFRG 190200Z AUTO 22004KT 9000 FEW020 13/13 Q1024

Heure: 04:25 (02:25 UTC)

Prévision

Le bulletin a été fait il y a 12 heures et 25 minutes, à 14:00 UTC
Prévision valable du 18 à 15 UTC au 18 à 24 UTC
Vent 8 kt de ouest/nord-ouest
Visibilité 10 km ou plus
Nuages fragmentés à une hauteur de 3000 ft
Evoluant progressivement
du 18 à 21 UTC au 18 à 24 UTC
Vent 5 kt de sud-ouest

TAF: LFRG 181400Z 1815/1824 30008KT 9999 BKN030 BECMG 1821/1824 23005KT

Observations et prévisions météorologiques de plus de 4000 aéroports (messages METAR et TAF).

Les stations disponibles sont représentées par des disques jaunes et rouges sur la carte.

Passer la souris dessus pour voir le nom de la station.

Cliquer dessus pour voir les observations et prévisions météorologiques.

Pour changer de carte: cliquez sur les boutons verts avec une croix noire pour zoomer, sur le bouton vert avec un tiret pour effectuer un zoom arrière, ou sur les flèches vertes pour les cartes adjacentes.


METAR-TAF: